createdAt,value
2023-03-31T00:00:51.433Z,85.53
2023-03-31T00:03:22.629Z,85.54
2023-03-31T00:05:53.748Z,85.87
2023-03-31T00:08:21.442Z,85.73
2023-03-31T00:10:49.231Z,85.62
2023-03-31T00:13:16.176Z,85.59
2023-03-31T00:15:42.896Z,85.75
2023-03-31T00:18:09.590Z,85.50
2023-03-31T00:20:38.349Z,85.69
2023-03-31T00:23:11.322Z,85.72
2023-03-31T00:25:41.831Z,85.63
2023-03-31T00:28:08.593Z,85.62
2023-03-31T00:30:35.384Z,85.43
2023-03-31T00:33:02.427Z,85.44
2023-03-31T00:35:29.117Z,85.53
2023-03-31T00:37:58.128Z,85.26
2023-03-31T00:40:25.082Z,85.11
2023-03-31T00:42:52.213Z,85.05
2023-03-31T00:45:27.595Z,85.06
2023-03-31T00:48:13.672Z,85.19
2023-03-31T00:50:49.973Z,85.06
2023-03-31T00:53:19.353Z,85.06
2023-03-31T00:55:53.377Z,85.09
2023-03-31T00:58:21.941Z,85.11
2023-03-31T01:00:51.516Z,85.05
2023-03-31T01:03:19.462Z,84.86
2023-03-31T01:05:50.347Z,84.97
2023-03-31T01:08:20.202Z,84.89
2023-03-31T01:10:51.366Z,84.72
2023-03-31T01:13:20.182Z,84.99
2023-03-31T01:15:47.460Z,84.89
2023-03-31T01:18:16.517Z,84.90
2023-03-31T01:21:23.524Z,85.07
2023-03-31T01:24:18.353Z,84.89
2023-03-31T01:27:01.881Z,84.83
2023-03-31T01:30:00.796Z,84.90
2023-03-31T01:32:59.578Z,85.02
2023-03-31T01:36:08.896Z,84.82
2023-03-31T01:39:10.779Z,84.84
2023-03-31T01:42:08.531Z,84.85
2023-03-31T01:44:43.974Z,85.01
2023-03-31T01:47:13.871Z,84.99
2023-03-31T01:50:00.598Z,85.34
2023-03-31T01:52:49.968Z,85.27
2023-03-31T01:55:24.686Z,85.31
2023-03-31T01:57:57.972Z,85.32
2023-03-31T02:00:33.728Z,85.22
2023-03-31T02:03:11.948Z,85.22
2023-03-31T02:05:45.616Z,85.50
2023-03-31T02:08:17.176Z,85.22
2023-03-31T02:10:46.603Z,85.33
2023-03-31T02:13:19.047Z,85.19
2023-03-31T02:15:51.672Z,85.00
2023-03-31T02:18:20.883Z,85.25
2023-03-31T02:20:51.531Z,85.14
2023-03-31T02:23:23.358Z,85.26
2023-03-31T02:25:54.757Z,85.30
2023-03-31T02:28:24.634Z,85.15
2023-03-31T02:31:06.878Z,85.60
2023-03-31T02:33:33.808Z,85.55
2023-03-31T02:36:01.144Z,85.71
2023-03-31T02:38:28.573Z,85.74
2023-03-31T02:40:55.341Z,85.87
2023-03-31T02:43:23.054Z,85.92
2023-03-31T02:45:51.566Z,85.98
2023-03-31T02:48:28.991Z,85.77
2023-03-31T02:51:09.157Z,86.07
2023-03-31T02:53:51.014Z,85.98
2023-03-31T02:56:50.484Z,85.99
2023-03-31T02:59:32.076Z,85.93
2023-03-31T03:02:11.069Z,85.80
2023-03-31T03:05:18.956Z,86.01
2023-03-31T03:08:00.745Z,86.05
2023-03-31T03:10:46.118Z,85.67
2023-03-31T03:13:20.069Z,85.84
2023-03-31T03:15:52.865Z,85.70
2023-03-31T03:18:19.778Z,85.54
2023-03-31T03:20:49.457Z,85.50
2023-03-31T03:23:16.949Z,85.78
2023-03-31T03:25:44.617Z,85.76
2023-03-31T03:28:11.481Z,85.75
2023-03-31T03:30:38.320Z,85.56
2023-03-31T03:33:07.054Z,85.62
2023-03-31T03:35:35.028Z,85.66
2023-03-31T03:38:01.878Z,85.57
2023-03-31T03:40:28.597Z,85.43
2023-03-31T03:42:55.501Z,85.38
2023-03-31T03:45:22.145Z,85.43
2023-03-31T03:47:48.828Z,85.46
2023-03-31T03:50:16.701Z,85.47
2023-03-31T03:52:44.131Z,85.48
2023-03-31T03:55:12.308Z,85.42
2023-03-31T03:57:39.003Z,85.47
2023-03-31T04:00:12.840Z,85.41
2023-03-31T04:02:40.107Z,85.34
2023-03-31T04:05:07.353Z,85.24
2023-03-31T04:07:34.242Z,85.34
2023-03-31T04:10:01.052Z,85.06
2023-03-31T04:12:27.695Z,85.33
2023-03-31T04:14:54.453Z,85.14
2023-03-31T04:17:33.335Z,85.24
2023-03-31T04:20:06.247Z,85.20
2023-03-31T04:22:40.785Z,85.13
2023-03-31T04:25:16.880Z,85.15
2023-03-31T04:27:55.728Z,85.09
2023-03-31T04:30:24.152Z,85.02
2023-03-31T04:32:59.610Z,85.18
2023-03-31T04:35:43.044Z,84.99
2023-03-31T04:38:10.108Z,84.87
2023-03-31T04:40:36.875Z,84.95
2023-03-31T04:43:03.602Z,84.93
2023-03-31T04:45:30.291Z,85.10
2023-03-31T04:47:57.111Z,84.86
2023-03-31T04:50:23.781Z,84.96
2023-03-31T04:52:50.654Z,84.94
2023-03-31T04:55:17.372Z,84.81
2023-03-31T04:57:44.144Z,84.77
2023-03-31T05:00:11.729Z,84.96
2023-03-31T05:02:38.482Z,84.74
2023-03-31T05:05:06.177Z,84.76
2023-03-31T05:07:33.056Z,84.52
2023-03-31T05:09:59.716Z,84.29
2023-03-31T05:12:26.463Z,84.26
2023-03-31T05:14:53.299Z,84.32
2023-03-31T05:17:20.006Z,84.17
2023-03-31T05:19:46.700Z,84.27
2023-03-31T05:22:13.527Z,84.03
2023-03-31T05:24:40.176Z,83.63
2023-03-31T05:27:06.869Z,83.23
2023-03-31T05:29:33.568Z,83.32
2023-03-31T05:32:00.272Z,82.93
2023-03-31T05:34:27.074Z,82.93
2023-03-31T05:36:54.128Z,82.69
2023-03-31T05:39:21.448Z,82.76
2023-03-31T05:41:48.336Z,82.52
2023-03-31T05:44:15.576Z,82.74
2023-03-31T05:46:42.657Z,82.88
2023-03-31T05:49:10.176Z,82.20
2023-03-31T05:51:36.875Z,80.70
2023-03-31T05:54:03.761Z,78.92
2023-03-31T05:56:30.549Z,77.70
2023-03-31T05:59:00.606Z,76.10
2023-03-31T06:01:28.005Z,74.73
2023-03-31T06:03:55.002Z,74.09
2023-03-31T06:06:22.638Z,72.82
2023-03-31T06:08:49.657Z,71.51
2023-03-31T06:11:19.716Z,70.35
2023-03-31T06:13:47.212Z,69.62
2023-03-31T06:16:15.797Z,70.09
2023-03-31T06:18:43.036Z,70.09
2023-03-31T06:21:17.562Z,70.36
2023-03-31T06:23:45.618Z,70.59
2023-03-31T06:26:15.018Z,69.27
2023-03-31T06:28:43.112Z,68.80
2023-03-31T06:31:12.871Z,68.25
2023-03-31T06:33:41.362Z,67.64
2023-03-31T06:36:09.911Z,67.30
2023-03-31T06:38:40.715Z,67.36
2023-03-31T06:41:09.818Z,67.32
2023-03-31T06:43:37.468Z,67.87
2023-03-31T06:46:05.195Z,68.28
2023-03-31T06:48:32.169Z,68.83
2023-03-31T06:51:04.876Z,69.01
2023-03-31T06:53:32.138Z,69.02
2023-03-31T06:55:59.119Z,69.53
2023-03-31T06:58:27.677Z,68.99
2023-03-31T07:00:55.735Z,67.78
2023-03-31T07:03:22.876Z,66.45
2023-03-31T07:05:51.093Z,65.58
2023-03-31T07:08:18.404Z,65.02
2023-03-31T07:10:48.835Z,64.35
2023-03-31T07:13:17.352Z,63.69
2023-03-31T07:15:47.569Z,62.70
2023-03-31T07:18:17.173Z,61.74
2023-03-31T07:20:50.849Z,62.54
2023-03-31T07:23:18.741Z,63.17
2023-03-31T07:25:46.695Z,62.69
2023-03-31T07:28:13.396Z,62.07
2023-03-31T07:30:41.273Z,61.79
2023-03-31T07:33:09.870Z,61.67
2023-03-31T07:35:41.352Z,61.39
2023-03-31T07:38:10.067Z,60.92
2023-03-31T07:40:38.870Z,60.90
2023-03-31T07:43:06.417Z,61.38
2023-03-31T07:45:34.666Z,61.36
2023-03-31T07:48:02.964Z,61.17
2023-03-31T07:50:33.589Z,60.64
2023-03-31T07:53:00.716Z,59.93
2023-03-31T07:55:27.561Z,60.36
2023-03-31T07:57:58.382Z,60.41
2023-03-31T08:00:25.491Z,60.56
2023-03-31T08:02:52.382Z,60.33
2023-03-31T08:05:21.087Z,60.77
2023-03-31T08:08:01.629Z,60.96
2023-03-31T08:10:28.485Z,60.90
2023-03-31T08:13:02.852Z,60.99
2023-03-31T08:15:29.878Z,60.63
2023-03-31T08:17:57.627Z,60.71
2023-03-31T08:20:28.286Z,60.95
2023-03-31T08:23:07.349Z,61.64
2023-03-31T08:25:34.077Z,61.79
2023-03-31T08:28:14.664Z,59.78
2023-03-31T08:30:43.973Z,59.60
2023-03-31T08:33:13.157Z,60.23
2023-03-31T08:35:40.210Z,60.13
2023-03-31T08:38:09.952Z,60.88
2023-03-31T08:40:41.616Z,61.63
2023-03-31T08:43:27.476Z,61.43
2023-03-31T08:45:56.596Z,61.74
2023-03-31T08:48:33.695Z,60.98
2023-03-31T08:51:41.374Z,61.11
2023-03-31T08:54:32.537Z,59.88
2023-03-31T08:57:12.812Z,59.75
2023-03-31T08:59:44.079Z,59.92
2023-03-31T09:02:30.329Z,58.94
2023-03-31T09:05:15.477Z,58.95
2023-03-31T09:07:59.438Z,58.81
2023-03-31T09:10:54.947Z,57.96
2023-03-31T09:13:57.324Z,57.81
2023-03-31T09:16:34.148Z,57.07
2023-03-31T09:19:02.167Z,56.56
2023-03-31T09:21:38.498Z,55.38
2023-03-31T09:24:11.213Z,55.32
2023-03-31T09:26:53.120Z,54.17
2023-03-31T09:29:24.600Z,53.81
2023-03-31T09:31:54.861Z,54.08
2023-03-31T09:38:02.005Z,54.76
2023-03-31T09:40:29.375Z,54.63
2023-03-31T09:43:29.230Z,55.43
2023-03-31T09:46:14.846Z,56.07
2023-03-31T09:49:00.813Z,56.97
2023-03-31T09:51:37.607Z,56.29
2023-03-31T09:54:44.831Z,56.24
2023-03-31T09:57:37.438Z,56.54
2023-03-31T10:00:19.994Z,55.39
2023-03-31T10:03:01.783Z,55.46
2023-03-31T10:05:50.221Z,55.09
2023-03-31T10:08:17.197Z,54.87
2023-03-31T10:11:08.124Z,55.01
2023-03-31T10:14:01.667Z,54.28
2023-03-31T10:16:35.338Z,53.83
2023-03-31T10:19:24.537Z,54.00
2023-03-31T10:22:06.504Z,54.29
2023-03-31T10:24:41.309Z,53.73
2023-03-31T10:27:24.423Z,53.41
2023-03-31T10:30:03.210Z,53.44
2023-03-31T10:32:39.507Z,53.40
2023-03-31T10:35:13.014Z,52.65
2023-03-31T10:37:41.074Z,52.13
2023-03-31T10:40:28.936Z,52.65
2023-03-31T10:43:09.817Z,53.50
2023-03-31T10:45:58.878Z,53.59
2023-03-31T10:48:33.379Z,53.28
2023-03-31T10:51:05.815Z,53.26
2023-03-31T10:53:49.530Z,53.51
2023-03-31T10:56:46.521Z,53.99
2023-03-31T10:59:43.852Z,54.54
2023-03-31T11:02:22.977Z,54.87
2023-03-31T11:04:52.304Z,55.46
2023-03-31T11:07:39.063Z,55.88
2023-03-31T11:10:15.492Z,56.65
2023-03-31T11:13:01.185Z,57.22
2023-03-31T11:15:38.590Z,57.56
2023-03-31T11:18:36.625Z,57.30
2023-03-31T11:21:06.641Z,57.70
2023-03-31T11:23:44.022Z,58.01
2023-03-31T11:26:17.767Z,58.08
2023-03-31T11:29:09.308Z,58.45
2023-03-31T11:31:58.819Z,58.43
2023-03-31T11:34:26.064Z,58.66
2023-03-31T11:37:21.642Z,58.48
2023-03-31T11:39:48.475Z,58.74
2023-03-31T11:42:22.818Z,58.75
2023-03-31T11:44:58.231Z,58.70
2023-03-31T11:47:31.414Z,58.83
2023-03-31T11:50:10.370Z,59.46
2023-03-31T11:52:44.950Z,59.45
2023-03-31T11:55:19.582Z,59.95
2023-03-31T11:57:56.767Z,60.04
2023-03-31T12:00:30.203Z,60.46
2023-03-31T12:03:04.859Z,60.16
2023-03-31T12:05:35.157Z,60.33
2023-03-31T12:08:08.119Z,59.62
2023-03-31T12:10:37.554Z,59.08
2023-03-31T12:13:31.435Z,59.02
2023-03-31T12:16:13.961Z,58.09
2023-03-31T12:18:50.031Z,58.13
2023-03-31T12:21:17.669Z,58.00
2023-03-31T12:23:46.148Z,58.22
2023-03-31T12:26:28.302Z,58.17
2023-03-31T12:29:01.401Z,58.13
2023-03-31T12:31:30.889Z,58.36
2023-03-31T12:34:02.104Z,58.22
2023-03-31T12:36:32.112Z,57.92
2023-03-31T12:39:21.753Z,57.74
2023-03-31T12:42:26.096Z,57.34
2023-03-31T12:45:11.220Z,57.59
2023-03-31T12:48:08.837Z,58.31
2023-03-31T12:50:54.218Z,58.62
2023-03-31T12:53:40.716Z,59.05
2023-03-31T12:56:08.863Z,59.42
2023-03-31T12:58:40.310Z,59.95
2023-03-31T13:01:24.283Z,60.53
2023-03-31T13:04:07.248Z,60.24
2023-03-31T13:06:34.060Z,60.63
2023-03-31T13:09:33.893Z,60.88
2023-03-31T13:12:08.523Z,60.93
2023-03-31T13:14:40.381Z,60.82
2023-03-31T13:17:30.065Z,60.51
2023-03-31T13:20:25.175Z,60.53
2023-03-31T13:23:01.454Z,60.24
2023-03-31T13:25:31.208Z,59.96
2023-03-31T13:28:04.671Z,59.49
2023-03-31T13:30:53.502Z,58.46
2023-03-31T13:33:45.042Z,57.91
2023-03-31T13:36:24.893Z,57.86
2023-03-31T13:39:29.044Z,57.58
2023-03-31T13:42:06.279Z,56.90
2023-03-31T13:44:57.766Z,56.89
2023-03-31T13:47:51.004Z,60.11
2023-03-31T13:50:22.533Z,63.01
2023-03-31T13:52:58.099Z,65.24
2023-03-31T13:55:46.860Z,67.33
2023-03-31T13:58:29.993Z,69.78
2023-03-31T14:01:19.663Z,71.42
2023-03-31T14:03:52.629Z,73.19
2023-03-31T14:06:53.162Z,74.30
2023-03-31T14:09:33.264Z,75.31
2023-03-31T14:12:01.093Z,75.53
2023-03-31T14:14:29.963Z,76.01
2023-03-31T14:17:03.823Z,75.76
2023-03-31T14:19:52.221Z,75.62
2023-03-31T14:22:41.561Z,75.32
2023-03-31T14:25:46.484Z,75.04
2023-03-31T14:28:25.235Z,74.83
2023-03-31T14:30:54.801Z,73.83
2023-03-31T14:33:41.808Z,73.12
2023-03-31T14:36:30.878Z,71.53
2023-03-31T14:39:04.682Z,70.15
2023-03-31T14:41:31.576Z,69.05
2023-03-31T14:44:02.873Z,68.25
2023-03-31T14:46:35.240Z,67.66
2023-03-31T14:49:21.756Z,67.01
2023-03-31T14:51:49.013Z,65.68
2023-03-31T14:54:18.514Z,65.01
2023-03-31T14:56:50.902Z,64.67
2023-03-31T14:59:31.276Z,64.47
2023-03-31T15:02:00.520Z,65.37
2023-03-31T15:04:39.629Z,65.63
2023-03-31T15:07:09.865Z,66.06
2023-03-31T15:09:36.792Z,66.95
2023-03-31T15:12:07.758Z,67.32
2023-03-31T15:14:43.778Z,67.76
2023-03-31T15:17:26.260Z,68.06
2023-03-31T15:19:59.707Z,68.48
2023-03-31T15:22:30.028Z,68.78
2023-03-31T15:24:57.530Z,68.47
2023-03-31T15:27:38.316Z,68.80
2023-03-31T15:30:23.638Z,68.56
2023-03-31T15:32:50.754Z,68.65
2023-03-31T15:35:36.895Z,69.02
2023-03-31T15:38:06.577Z,69.14
2023-03-31T15:40:40.354Z,69.12
2023-03-31T15:43:25.329Z,69.34
2023-03-31T15:45:54.959Z,69.54
2023-03-31T15:48:35.169Z,69.39
2023-03-31T15:51:13.991Z,69.48
2023-03-31T15:53:54.666Z,69.62
2023-03-31T15:56:48.208Z,69.70
2023-03-31T15:59:34.212Z,69.97
2023-03-31T16:02:03.822Z,70.34
2023-03-31T16:04:33.403Z,70.32
2023-03-31T16:07:14.955Z,70.78
2023-03-31T16:09:49.974Z,71.29
2023-03-31T16:12:22.903Z,71.41
2023-03-31T16:15:02.478Z,71.10
2023-03-31T16:17:37.359Z,71.45
2023-03-31T16:20:24.658Z,71.42
2023-03-31T16:22:55.130Z,71.87
2023-03-31T16:25:24.122Z,71.36
2023-03-31T16:27:55.741Z,70.46
2023-03-31T16:30:38.237Z,70.26
2023-03-31T16:33:17.833Z,70.14
2023-03-31T16:35:53.796Z,70.05
2023-03-31T16:38:28.935Z,70.16
2023-03-31T16:41:00.592Z,70.65
2023-03-31T16:43:31.734Z,70.61
2023-03-31T16:46:00.760Z,70.86
2023-03-31T16:48:29.601Z,70.82
2023-03-31T16:50:58.672Z,70.72
2023-03-31T16:53:28.567Z,71.05
2023-03-31T16:55:58.691Z,71.30
2023-03-31T16:58:28.564Z,71.60
2023-03-31T17:00:56.662Z,71.82
2023-03-31T17:03:23.904Z,72.21
2023-03-31T17:05:53.305Z,72.44
2023-03-31T17:08:21.827Z,72.60
2023-03-31T17:11:11.119Z,72.38
2023-03-31T17:13:38.915Z,72.66
2023-03-31T17:16:18.617Z,72.67
2023-03-31T17:18:51.233Z,72.66
2023-03-31T17:21:21.287Z,72.73
2023-03-31T17:23:48.072Z,72.53
2023-03-31T17:26:18.617Z,72.59
2023-03-31T17:28:45.642Z,72.55
2023-03-31T17:31:12.748Z,72.45
2023-03-31T17:33:40.844Z,72.27
2023-03-31T17:36:08.129Z,72.28
2023-03-31T17:38:34.926Z,72.09
2023-03-31T17:41:06.242Z,72.38
2023-03-31T17:43:33.571Z,72.08
2023-03-31T17:46:06.568Z,72.15
2023-03-31T17:48:38.083Z,72.06
2023-03-31T17:51:13.303Z,72.10
2023-03-31T17:53:40.092Z,72.20
2023-03-31T17:56:06.975Z,72.48
2023-03-31T17:58:33.820Z,72.25
2023-03-31T18:01:00.767Z,72.11
2023-03-31T18:03:30.708Z,72.06
2023-03-31T18:05:57.783Z,71.96
2023-03-31T18:08:24.575Z,71.79
2023-03-31T18:10:51.656Z,71.60
2023-03-31T18:13:18.406Z,71.71
2023-03-31T18:15:52.799Z,71.54
2023-03-31T18:18:21.011Z,71.40
2023-03-31T18:20:50.454Z,71.39
2023-03-31T18:23:17.157Z,71.59
2023-03-31T18:25:46.267Z,71.96
2023-03-31T18:28:14.355Z,72.67
2023-03-31T18:30:41.452Z,73.43
2023-03-31T18:33:08.212Z,74.24
2023-03-31T18:35:35.372Z,74.85
2023-03-31T18:38:02.468Z,75.05
2023-03-31T18:40:31.239Z,75.00
2023-03-31T18:42:57.916Z,75.59
2023-03-31T18:45:24.767Z,76.17
2023-03-31T18:47:51.483Z,76.73
2023-03-31T18:50:19.311Z,76.52
2023-03-31T18:52:47.656Z,76.91
2023-03-31T18:55:15.747Z,77.19
2023-03-31T18:57:42.379Z,76.82
2023-03-31T19:00:10.387Z,76.88
2023-03-31T19:02:37.230Z,77.30
2023-03-31T19:05:04.197Z,77.92
2023-03-31T19:07:30.971Z,78.23
2023-03-31T19:09:58.269Z,78.39
2023-03-31T19:12:24.980Z,78.63
2023-03-31T19:14:54.245Z,78.83
2023-03-31T19:17:21.080Z,78.93
2023-03-31T19:19:47.866Z,79.14
2023-03-31T19:22:14.610Z,79.14
2023-03-31T19:24:41.301Z,79.22
2023-03-31T19:27:09.457Z,79.33
2023-03-31T19:29:36.190Z,79.30
2023-03-31T19:32:03.006Z,79.82
2023-03-31T19:34:29.790Z,79.87
2023-03-31T19:36:56.764Z,79.84
2023-03-31T19:39:25.607Z,80.01
2023-03-31T19:41:54.365Z,80.31
2023-03-31T19:44:22.153Z,80.80
2023-03-31T19:46:50.109Z,80.89
2023-03-31T19:49:18.004Z,81.17
2023-03-31T19:51:44.712Z,81.45
2023-03-31T19:54:12.035Z,81.52
2023-03-31T19:56:39.414Z,81.88
2023-03-31T19:59:06.595Z,82.06
2023-03-31T20:01:33.693Z,82.13
2023-03-31T20:04:01.048Z,82.36
2023-03-31T20:06:30.114Z,82.31
2023-03-31T20:08:59.414Z,82.35
2023-03-31T20:11:27.726Z,82.91
2023-03-31T20:13:55.479Z,82.94
2023-03-31T20:16:25.288Z,83.01
2023-03-31T20:18:58.842Z,82.80
2023-03-31T20:21:28.847Z,82.72
2023-03-31T20:23:57.324Z,82.90
2023-03-31T20:26:32.685Z,83.01
2023-03-31T20:29:04.252Z,83.23
2023-03-31T20:31:34.165Z,83.35
2023-03-31T20:34:00.910Z,83.57
2023-03-31T20:36:29.857Z,83.62
2023-03-31T20:38:57.284Z,83.50
2023-03-31T20:41:27.201Z,83.88
2023-03-31T20:43:55.418Z,83.67
2023-03-31T20:46:22.550Z,83.84
2023-03-31T20:48:52.168Z,83.73
2023-03-31T20:51:22.128Z,83.95
2023-03-31T20:53:53.054Z,83.98
2023-03-31T20:56:33.741Z,84.04
2023-03-31T20:59:00.670Z,84.17
2023-03-31T21:01:30.177Z,84.20
2023-03-31T21:04:01.173Z,84.15
2023-03-31T21:06:30.503Z,84.29
2023-03-31T21:08:57.683Z,84.07
2023-03-31T21:11:25.488Z,84.20
2023-03-31T21:13:53.374Z,84.22
2023-03-31T21:16:21.312Z,84.19
2023-03-31T21:18:48.588Z,84.37
2023-03-31T21:21:18.980Z,84.02
2023-03-31T21:23:46.800Z,83.52
2023-03-31T21:26:15.816Z,83.43
2023-03-31T21:28:43.874Z,83.15
2023-03-31T21:31:11.992Z,82.37
2023-03-31T21:33:40.757Z,81.87
2023-03-31T21:36:10.200Z,81.67
2023-03-31T21:38:37.654Z,81.14
2023-03-31T21:41:09.302Z,81.02
2023-03-31T21:43:36.807Z,80.61
2023-03-31T21:46:04.229Z,80.38
2023-03-31T21:48:33.419Z,80.07
2023-03-31T21:51:03.834Z,79.95
2023-03-31T21:53:31.238Z,80.02
2023-03-31T21:55:58.165Z,79.91
2023-03-31T21:58:28.711Z,79.89
2023-03-31T22:00:58.092Z,79.54
2023-03-31T22:03:28.898Z,79.44
2023-03-31T22:05:57.024Z,79.63
2023-03-31T22:08:24.763Z,79.53
2023-03-31T22:10:52.341Z,79.45
2023-03-31T22:13:20.250Z,79.15
2023-03-31T22:15:47.055Z,78.95
2023-03-31T22:18:13.989Z,78.99
2023-03-31T22:20:41.084Z,78.84
2023-03-31T22:23:08.087Z,78.87
2023-03-31T22:25:35.529Z,78.84
2023-03-31T22:28:04.541Z,78.81
2023-03-31T22:30:33.628Z,78.53
2023-03-31T22:33:00.639Z,78.66
2023-03-31T22:35:27.750Z,78.68
2023-03-31T22:37:54.605Z,78.65
2023-03-31T22:40:21.617Z,78.62
2023-03-31T22:42:51.057Z,78.58
2023-03-31T22:45:17.866Z,78.50
2023-03-31T22:47:44.722Z,78.48
2023-03-31T22:50:12.083Z,78.45
2023-03-31T22:52:38.772Z,78.08
2023-03-31T22:55:06.483Z,78.32
2023-03-31T22:57:33.767Z,78.19
2023-03-31T23:00:00.919Z,78.22
2023-03-31T23:02:27.862Z,78.05
2023-03-31T23:04:54.571Z,78.17
2023-03-31T23:07:22.160Z,77.98
2023-03-31T23:09:49.276Z,77.85
2023-03-31T23:12:16.187Z,77.98
2023-03-31T23:14:43.000Z,77.92
2023-03-31T23:17:09.709Z,77.91
2023-03-31T23:19:37.924Z,78.06
2023-03-31T23:22:04.642Z,77.84
2023-03-31T23:24:31.353Z,77.93
2023-03-31T23:26:58.159Z,77.90
2023-03-31T23:29:24.903Z,77.77
2023-03-31T23:31:51.880Z,77.69
2023-03-31T23:34:18.670Z,77.66
2023-03-31T23:36:45.562Z,77.64
2023-03-31T23:39:12.250Z,77.83
2023-03-31T23:41:39.087Z,77.93
2023-03-31T23:44:06.416Z,77.94
2023-03-31T23:46:33.872Z,77.83
2023-03-31T23:49:02.900Z,77.81
2023-03-31T23:51:31.055Z,77.78
2023-03-31T23:53:57.848Z,77.85
2023-03-31T23:56:26.237Z,77.84
2023-03-31T23:58:53.154Z,77.98
